createdAt,value
2018-06-28T00:01:14.000Z,101120
2018-06-28T00:03:14.000Z,101112
2018-06-28T00:05:14.000Z,101115
2018-06-28T00:07:15.000Z,101111
2018-06-28T00:09:15.000Z,101109
2018-06-28T00:11:15.000Z,101110
2018-06-28T00:13:15.000Z,101119
2018-06-28T00:15:15.000Z,101113
2018-06-28T00:17:15.000Z,101118
2018-06-28T00:18:15.000Z,101118
2018-06-28T00:20:15.000Z,101121
2018-06-28T00:25:15.000Z,101119
2018-06-28T00:27:00.000Z,101125
2018-06-28T00:28:45.000Z,101127
2018-06-28T00:30:00.000Z,101124
2018-06-28T00:31:45.000Z,101120
2018-06-28T00:33:00.000Z,101123
2018-06-28T00:35:00.000Z,101118
2018-06-28T00:36:45.000Z,101120
2018-06-28T00:38:00.000Z,101116
2018-06-28T00:39:45.000Z,101129
2018-06-28T00:41:00.000Z,101118
2018-06-28T00:42:00.000Z,101121
2018-06-28T00:43:00.000Z,101119
2018-06-28T00:45:00.000Z,101119
2018-06-28T00:46:00.000Z,101121
2018-06-28T00:48:00.000Z,101123
2018-06-28T00:50:00.000Z,101122
2018-06-28T00:52:00.000Z,101122
2018-06-28T00:54:00.000Z,101124
2018-06-28T00:56:00.000Z,101124
2018-06-28T00:58:00.000Z,101126
2018-06-28T00:59:00.000Z,101120
2018-06-28T01:01:00.000Z,101127
2018-06-28T01:03:00.000Z,101131
2018-06-28T01:05:00.000Z,101126
2018-06-28T01:06:00.000Z,101122
2018-06-28T01:08:00.000Z,101121
2018-06-28T01:09:00.000Z,101121
2018-06-28T01:11:00.000Z,101126
2018-06-28T01:13:00.000Z,101125
2018-06-28T01:15:00.000Z,101129
2018-06-28T01:17:00.000Z,101128
2018-06-28T01:18:00.000Z,101121
2018-06-28T01:20:00.000Z,101119
2018-06-28T01:22:00.000Z,101127
2018-06-28T01:24:00.000Z,101131
2018-06-28T01:25:00.000Z,101119
2018-06-28T01:26:00.000Z,101123
2018-06-28T01:28:00.000Z,101127
2018-06-28T01:29:00.000Z,101131
2018-06-28T01:30:30.000Z,101128
2018-06-28T01:32:00.000Z,101126
2018-06-28T01:34:00.000Z,101127
2018-06-28T01:36:00.000Z,101125
2018-06-28T01:38:00.000Z,101124
2018-06-28T01:39:45.000Z,101122
2018-06-28T01:41:00.000Z,101121
2018-06-28T01:42:00.000Z,101122
2018-06-28T01:44:00.000Z,101120
2018-06-28T01:45:00.000Z,101122
2018-06-28T01:46:00.000Z,101122
2018-06-28T01:48:00.000Z,101125
2018-06-28T01:50:00.000Z,101119
2018-06-28T01:52:00.000Z,101121
2018-06-28T01:53:00.000Z,101119
2018-06-28T01:54:00.000Z,101127
2018-06-28T01:56:00.000Z,101116
2018-06-28T01:58:00.000Z,101114
2018-06-28T01:59:00.000Z,101110
2018-06-28T02:01:00.000Z,101113
2018-06-28T02:03:00.000Z,101112
2018-06-28T02:05:00.000Z,101120
2018-06-28T02:07:00.000Z,101121
2018-06-28T02:08:00.000Z,101121
2018-06-28T02:10:00.000Z,101126
2018-06-28T02:12:00.000Z,101126
2018-06-28T02:13:00.000Z,101121
2018-06-28T02:15:00.000Z,101124
2018-06-28T02:16:00.000Z,101120
2018-06-28T02:18:00.000Z,101123
2018-06-28T02:20:00.000Z,101124
2018-06-28T02:21:00.000Z,101123
2018-06-28T02:22:45.000Z,101127
2018-06-28T02:23:45.000Z,101126
2018-06-28T02:25:00.000Z,101120
2018-06-28T02:26:00.000Z,101125
2018-06-28T02:28:00.000Z,101124
2018-06-28T02:29:30.000Z,101118
2018-06-28T02:31:00.000Z,101120
2018-06-28T02:33:00.000Z,101118
2018-06-28T02:34:00.000Z,101114
2018-06-28T02:35:00.000Z,101115
2018-06-28T02:36:45.000Z,101114
2018-06-28T02:38:00.000Z,101117
2018-06-28T02:40:00.000Z,101114
2018-06-28T02:42:00.000Z,101118
2018-06-28T02:44:00.000Z,101118
2018-06-28T02:46:00.000Z,101118
2018-06-28T02:48:00.000Z,101115
2018-06-28T02:49:00.000Z,101115
2018-06-28T02:50:00.000Z,101115
2018-06-28T02:52:00.000Z,101116
2018-06-28T02:53:00.000Z,101117
2018-06-28T02:54:00.000Z,101115
2018-06-28T02:56:00.000Z,101122
2018-06-28T02:57:30.000Z,101123
2018-06-28T02:59:00.000Z,101120
2018-06-28T03:01:00.000Z,101115
2018-06-28T03:02:45.000Z,101123
2018-06-28T03:04:00.000Z,101123
2018-06-28T03:06:00.000Z,101128
2018-06-28T03:08:00.000Z,101129
2018-06-28T03:09:00.000Z,101128
2018-06-28T03:11:00.000Z,101127
2018-06-28T03:13:00.000Z,101132
2018-06-28T03:15:00.000Z,101129
2018-06-28T03:16:45.000Z,101130
2018-06-28T03:17:59.000Z,101137
2018-06-28T03:19:59.000Z,101138
2018-06-28T03:21:59.000Z,101135
2018-06-28T03:23:59.000Z,101140
2018-06-28T03:25:59.000Z,101134
2018-06-28T03:27:59.000Z,101136
2018-06-28T03:29:59.000Z,101134
2018-06-28T03:31:59.000Z,101132
2018-06-28T03:33:59.000Z,101135
2018-06-28T03:35:59.000Z,101139
2018-06-28T03:37:59.000Z,101135
2018-06-28T03:39:44.000Z,101138
2018-06-28T03:40:59.000Z,101139
2018-06-28T03:42:59.000Z,101143
2018-06-28T03:43:59.000Z,101139
2018-06-28T03:45:44.000Z,101145
2018-06-28T03:46:59.000Z,101144
2018-06-28T03:48:44.000Z,101145
2018-06-28T03:49:44.000Z,101150
2018-06-28T03:50:59.000Z,101142
2018-06-28T03:52:59.000Z,101148
2018-06-28T03:54:59.000Z,101146
2018-06-28T03:56:59.000Z,101145
2018-06-28T03:57:59.000Z,101150
2018-06-28T03:58:59.000Z,101145
2018-06-28T03:59:59.000Z,101143
2018-06-28T04:01:59.000Z,101138
2018-06-28T04:03:59.000Z,101140
2018-06-28T04:04:59.000Z,101140
2018-06-28T04:06:59.000Z,101143
2018-06-28T04:08:59.000Z,101149
2018-06-28T04:10:59.000Z,101151
2018-06-28T04:11:59.000Z,101150
2018-06-28T04:13:59.000Z,101151
2018-06-28T04:14:59.000Z,101148
2018-06-28T04:15:59.000Z,101142
2018-06-28T04:17:59.000Z,101146
2018-06-28T04:19:59.000Z,101146
2018-06-28T04:20:59.000Z,101150
2018-06-28T04:23:00.000Z,101145
2018-06-28T04:25:00.000Z,101147
2018-06-28T04:27:00.000Z,101151
2018-06-28T04:29:00.000Z,101152
2018-06-28T04:31:00.000Z,101147
2018-06-28T04:33:00.000Z,101147
2018-06-28T04:34:00.000Z,101145
2018-06-28T04:35:00.000Z,101141
2018-06-28T04:37:00.000Z,101145
2018-06-28T04:38:00.000Z,101149
2018-06-28T04:40:00.000Z,101155
2018-06-28T04:41:00.000Z,101153
2018-06-28T04:43:00.000Z,101154
2018-06-28T04:44:00.000Z,101150
2018-06-28T04:46:00.000Z,101147
2018-06-28T04:48:00.000Z,101153
2018-06-28T04:49:00.000Z,101154
2018-06-28T04:51:00.000Z,101150
2018-06-28T04:52:00.000Z,101147
2018-06-28T04:53:00.000Z,101149
2018-06-28T04:55:00.000Z,101145
2018-06-28T04:57:00.000Z,101150
2018-06-28T04:59:00.000Z,101142
2018-06-28T05:01:00.000Z,101138
2018-06-28T05:03:00.000Z,101140
2018-06-28T05:05:00.000Z,101133
2018-06-28T05:06:00.000Z,101132
2018-06-28T05:08:00.000Z,101135
2018-06-28T05:09:00.000Z,101134
2018-06-28T05:10:30.000Z,101136
2018-06-28T05:12:00.000Z,101134
2018-06-28T05:13:00.000Z,101128
2018-06-28T05:14:00.000Z,101134
2018-06-28T05:16:00.000Z,101132
2018-06-28T05:17:00.000Z,101127
2018-06-28T05:19:00.000Z,101126
2018-06-28T05:21:00.000Z,101133
2018-06-28T05:22:00.000Z,101128
2018-06-28T05:24:00.000Z,101132
2018-06-28T05:25:00.000Z,101124
2018-06-28T05:26:45.000Z,101133
2018-06-28T05:28:00.000Z,101126
2018-06-28T05:29:00.000Z,101125
2018-06-28T05:31:00.000Z,101121
2018-06-28T05:32:45.000Z,101119
2018-06-28T05:34:00.000Z,101118
2018-06-28T05:35:00.000Z,101122
2018-06-28T05:37:00.000Z,101123
2018-06-28T05:39:00.000Z,101123
2018-06-28T05:40:00.000Z,101122
2018-06-28T05:42:00.000Z,101117
2018-06-28T05:44:00.000Z,101115
2018-06-28T05:46:00.000Z,101124
2018-06-28T05:47:45.000Z,101115
2018-06-28T05:49:00.000Z,101124
2018-06-28T05:50:00.000Z,101123
2018-06-28T05:52:00.000Z,101124
2018-06-28T05:53:00.000Z,101126
2018-06-28T05:55:00.000Z,101128
2018-06-28T05:57:00.000Z,101128
2018-06-28T05:59:00.000Z,101127
2018-06-28T06:01:00.000Z,101139
2018-06-28T06:03:00.000Z,101137
2018-06-28T06:05:00.000Z,101138
2018-06-28T06:06:00.000Z,101135
2018-06-28T06:07:00.000Z,101131
2018-06-28T06:09:00.000Z,101136
2018-06-28T06:10:00.000Z,101136
2018-06-28T06:11:45.000Z,101138
2018-06-28T06:14:00.000Z,101139
2018-06-28T06:15:00.000Z,101141
2018-06-28T06:17:00.000Z,101144
2018-06-28T06:19:00.000Z,101138
2018-06-28T06:21:00.000Z,101140
2018-06-28T06:23:00.000Z,101144
2018-06-28T06:25:00.000Z,101146
2018-06-28T06:26:00.000Z,101150
2018-06-28T06:28:00.000Z,101152
2018-06-28T06:30:00.000Z,101151
2018-06-28T06:31:00.000Z,101151
2018-06-28T06:33:00.000Z,101153
2018-06-28T06:35:00.000Z,101147
2018-06-28T06:36:45.000Z,101154
2018-06-28T06:38:00.000Z,101153
2018-06-28T06:39:00.000Z,101157
2018-06-28T06:40:45.000Z,101150
2018-06-28T06:42:00.000Z,101154
2018-06-28T06:43:45.000Z,101156
2018-06-28T06:45:00.000Z,101155
2018-06-28T06:46:00.000Z,101148
2018-06-28T06:48:00.000Z,101142
2018-06-28T06:49:45.000Z,101139
2018-06-28T06:51:00.000Z,101140
2018-06-28T06:52:00.000Z,101142
2018-06-28T06:53:00.000Z,101146
2018-06-28T06:55:00.000Z,101142
2018-06-28T06:57:00.000Z,101149
2018-06-28T06:58:00.000Z,101147
2018-06-28T07:00:00.000Z,101146
2018-06-28T07:02:00.000Z,101142
2018-06-28T07:03:00.000Z,101137
2018-06-28T07:04:45.000Z,101140
2018-06-28T07:05:45.000Z,101144
2018-06-28T07:07:00.000Z,101149
2018-06-28T07:09:00.000Z,101143
2018-06-28T07:10:00.000Z,101151
2018-06-28T07:12:00.000Z,101141
2018-06-28T07:13:00.000Z,101147
2018-06-28T07:15:00.000Z,101145
2018-06-28T07:16:00.000Z,101141
2018-06-28T07:18:00.000Z,101143
2018-06-28T07:20:00.000Z,101140
2018-06-28T07:22:00.000Z,101148
2018-06-28T07:23:45.000Z,101148
2018-06-28T07:25:00.000Z,101142
2018-06-28T07:26:45.000Z,101152
2018-06-28T07:28:00.000Z,101146
2018-06-28T07:29:00.000Z,101145
2018-06-28T07:31:00.000Z,101142
2018-06-28T07:33:00.000Z,101149
2018-06-28T07:34:29.000Z,101151
2018-06-28T07:36:00.000Z,101150
2018-06-28T07:37:00.000Z,101149
2018-06-28T07:38:44.000Z,101152
2018-06-28T07:40:00.000Z,101151
2018-06-28T07:42:00.000Z,101146
2018-06-28T07:44:00.000Z,101142
2018-06-28T07:46:00.000Z,101141
2018-06-28T07:48:00.000Z,101148
2018-06-28T07:49:44.000Z,101145
2018-06-28T07:51:00.000Z,101143
2018-06-28T07:53:00.000Z,101144
2018-06-28T07:55:00.000Z,101145
2018-06-28T07:56:00.000Z,101145
2018-06-28T07:57:44.000Z,101148
2018-06-28T07:59:00.000Z,101149
2018-06-28T08:01:00.000Z,101148
2018-06-28T08:02:00.000Z,101149
2018-06-28T08:03:00.000Z,101142
2018-06-28T08:05:00.000Z,101146
2018-06-28T08:07:00.000Z,101148
2018-06-28T08:08:44.000Z,101151
2018-06-28T08:09:44.000Z,101141
2018-06-28T08:11:00.000Z,101144
2018-06-28T08:12:00.000Z,101142
2018-06-28T08:13:44.000Z,101139
2018-06-28T08:15:00.000Z,101145
2018-06-28T08:17:00.000Z,101148
2018-06-28T08:19:00.000Z,101145
2018-06-28T08:21:00.000Z,101138
2018-06-28T08:23:00.000Z,101141
2018-06-28T08:25:00.000Z,101140
2018-06-28T08:26:00.000Z,101138
2018-06-28T08:28:00.000Z,101140
2018-06-28T08:29:00.000Z,101139
2018-06-28T08:31:00.000Z,101141
2018-06-28T08:33:00.000Z,101134
2018-06-28T08:35:00.000Z,101139
2018-06-28T08:37:00.000Z,101138
2018-06-28T08:38:00.000Z,101136
2018-06-28T08:40:00.000Z,101137
2018-06-28T08:41:00.000Z,101136
2018-06-28T08:43:00.000Z,101132
2018-06-28T08:45:00.000Z,101133
2018-06-28T08:46:00.000Z,101126
2018-06-28T08:48:00.000Z,101135
2018-06-28T08:50:00.000Z,101123
2018-06-28T08:51:00.000Z,101125
2018-06-28T08:53:00.000Z,101116
2018-06-28T08:54:45.000Z,101124
2018-06-28T08:56:00.000Z,101118
2018-06-28T08:57:00.000Z,101127
2018-06-28T08:59:00.000Z,101113
2018-06-28T09:00:30.000Z,101117
2018-06-28T09:02:00.000Z,101118
2018-06-28T09:04:00.000Z,101110
2018-06-28T09:06:00.000Z,101122
2018-06-28T09:08:00.000Z,101113
2018-06-28T09:10:00.000Z,101113
2018-06-28T09:12:00.000Z,101114
2018-06-28T09:13:00.000Z,101115
2018-06-28T09:15:00.000Z,101112
2018-06-28T09:17:00.000Z,101114
2018-06-28T09:18:00.000Z,101112
2018-06-28T09:20:00.000Z,101109
2018-06-28T09:21:45.000Z,101107
2018-06-28T09:23:00.000Z,101107
2018-06-28T09:24:00.000Z,101105
2018-06-28T09:26:00.000Z,101105
2018-06-28T09:28:00.000Z,101109
2018-06-28T09:29:00.000Z,101108
2018-06-28T09:31:00.000Z,101110
2018-06-28T09:33:00.000Z,101102
2018-06-28T09:35:00.000Z,101102
2018-06-28T09:36:00.000Z,101101
2018-06-28T09:38:00.000Z,101090
2018-06-28T09:40:00.000Z,101080
2018-06-28T09:41:00.000Z,101084
2018-06-28T09:43:00.000Z,101089
2018-06-28T09:45:00.000Z,101088
2018-06-28T09:47:00.000Z,101091
2018-06-28T09:49:00.000Z,101088
2018-06-28T09:51:00.000Z,101078
2018-06-28T09:53:00.000Z,101080
2018-06-28T09:55:00.000Z,101079
2018-06-28T09:57:00.000Z,101073
2018-06-28T09:59:00.000Z,101085
2018-06-28T10:01:00.000Z,101082
2018-06-28T10:03:00.000Z,101071
2018-06-28T10:05:00.000Z,101071
2018-06-28T10:07:00.000Z,101066
2018-06-28T10:09:00.000Z,101065
2018-06-28T10:11:00.000Z,101064
2018-06-28T10:12:45.000Z,101070
2018-06-28T10:14:00.000Z,101066
2018-06-28T10:15:00.000Z,101066
2018-06-28T10:17:00.000Z,101068
2018-06-28T10:18:00.000Z,101053
2018-06-28T10:20:00.000Z,101055
2018-06-28T10:22:00.000Z,101052
2018-06-28T10:23:00.000Z,101058
2018-06-28T10:25:00.000Z,101051
2018-06-28T10:27:00.000Z,101043
2018-06-28T10:29:00.000Z,101038
2018-06-28T10:30:00.000Z,101044
2018-06-28T10:32:00.000Z,101035
2018-06-28T10:34:00.000Z,101031
2018-06-28T10:36:00.000Z,101029
2018-06-28T10:38:00.000Z,101024
2018-06-28T10:40:00.000Z,101032
2018-06-28T10:41:00.000Z,101030
2018-06-28T10:43:00.000Z,101022
2018-06-28T10:45:00.000Z,101018
2018-06-28T10:47:00.000Z,101014
2018-06-28T10:49:00.000Z,101018
2018-06-28T10:51:00.000Z,101010
2018-06-28T10:53:00.000Z,101006
2018-06-28T10:55:00.000Z,101005
2018-06-28T10:57:00.000Z,101010
2018-06-28T10:59:00.000Z,101004
2018-06-28T11:01:00.000Z,101016
2018-06-28T11:03:00.000Z,101005
2018-06-28T11:04:00.000Z,101009
2018-06-28T11:06:00.000Z,101004
2018-06-28T11:08:00.000Z,100998
2018-06-28T11:10:00.000Z,100999
2018-06-28T11:12:00.000Z,100993
2018-06-28T11:13:44.000Z,100993
2018-06-28T11:15:00.000Z,100991
2018-06-28T11:17:00.000Z,100994
2018-06-28T11:19:00.000Z,100998
2018-06-28T11:20:00.000Z,100994
2018-06-28T11:22:00.000Z,100988
2018-06-28T11:23:00.000Z,100986
2018-06-28T11:25:00.000Z,100981
2018-06-28T11:27:00.000Z,100973
2018-06-28T11:29:00.000Z,100970
2018-06-28T11:30:00.000Z,100971
2018-06-28T11:32:00.000Z,100974
2018-06-28T11:33:00.000Z,100977
2018-06-28T11:35:00.000Z,100971
2018-06-28T11:37:00.000Z,100974
2018-06-28T11:39:00.000Z,100971
2018-06-28T11:40:00.000Z,100971
2018-06-28T11:42:00.000Z,100966
2018-06-28T11:44:00.000Z,100967
2018-06-28T11:46:00.000Z,100962
2018-06-28T11:47:45.000Z,100951
2018-06-28T11:49:00.000Z,100953
2018-06-28T11:51:00.000Z,100944
2018-06-28T11:53:00.000Z,100947
2018-06-28T11:54:00.000Z,100945
2018-06-28T11:56:00.000Z,100948
2018-06-28T11:57:00.000Z,100946
2018-06-28T11:59:00.000Z,100944
2018-06-28T12:00:00.000Z,100944
2018-06-28T12:01:45.000Z,100940
2018-06-28T12:03:00.000Z,100939
2018-06-28T12:45:49.000Z,100908
2018-06-28T12:47:34.000Z,100904
2018-06-28T12:49:34.000Z,100906
2018-06-28T12:51:34.000Z,100911
2018-06-28T12:52:34.000Z,100901
2018-06-28T12:54:19.000Z,100907
2018-06-28T12:55:34.000Z,100903
2018-06-28T12:56:34.000Z,100896
2018-06-28T12:58:34.000Z,100900
2018-06-28T12:59:34.000Z,100893
2018-06-28T13:00:34.000Z,100891
2018-06-28T13:01:34.000Z,100894
2018-06-28T13:03:34.000Z,100890
2018-06-28T13:05:34.000Z,100888
2018-06-28T13:06:34.000Z,100881
2018-06-28T13:08:34.000Z,100885
2018-06-28T13:10:34.000Z,100879
2018-06-28T13:12:34.000Z,100877
2018-06-28T13:13:34.000Z,100872
2018-06-28T13:15:34.000Z,100873
2018-06-28T13:16:34.000Z,100876
2018-06-28T13:17:34.000Z,100880
2018-06-28T13:18:34.000Z,100871
2018-06-28T13:20:34.000Z,100865
2018-06-28T13:22:34.000Z,100859
2018-06-28T13:24:34.000Z,100865
2018-06-28T13:26:34.000Z,100871
2018-06-28T13:28:34.000Z,100869
2018-06-28T13:29:34.000Z,100866
2018-06-28T13:31:34.000Z,100852
2018-06-28T13:32:34.000Z,100856
2018-06-28T13:34:34.000Z,100852
2018-06-28T13:36:34.000Z,100859
2018-06-28T13:38:34.000Z,100851
2018-06-28T13:39:34.000Z,100851
2018-06-28T13:41:34.000Z,100835
2018-06-28T13:42:34.000Z,100833
2018-06-28T13:43:34.000Z,100832
2018-06-28T13:45:34.000Z,100835
2018-06-28T13:47:34.000Z,100835
2018-06-28T13:49:34.000Z,100834
2018-06-28T13:51:34.000Z,100840
2018-06-28T13:53:34.000Z,100829
2018-06-28T13:54:34.000Z,100836
2018-06-28T13:56:34.000Z,100827
2018-06-28T13:58:34.000Z,100825
2018-06-28T14:00:34.000Z,100814
2018-06-28T14:02:19.000Z,100821
2018-06-28T14:03:34.000Z,100811
2018-06-28T14:05:34.000Z,100811
2018-06-28T14:06:34.000Z,100813
2018-06-28T14:08:34.000Z,100810
2018-06-28T14:09:34.000Z,100811
2018-06-28T14:10:34.000Z,100809
2018-06-28T14:12:19.000Z,100807
2018-06-28T14:13:34.000Z,100803
2018-06-28T14:15:34.000Z,100804
2018-06-28T14:17:19.000Z,100803
2018-06-28T14:18:34.000Z,100796
2018-06-28T14:20:19.000Z,100796
2018-06-28T14:21:34.000Z,100799
2018-06-28T14:22:34.000Z,100793
2018-06-28T14:24:19.000Z,100795
2018-06-28T14:28:35.000Z,100792
2018-06-28T14:30:21.000Z,100787
2018-06-28T14:32:21.000Z,100790
2018-06-28T14:34:21.000Z,100797
2018-06-28T14:36:21.000Z,100794
2018-06-28T14:38:21.000Z,100798
2018-06-28T14:40:06.000Z,100796
2018-06-28T14:41:21.000Z,100798
2018-06-28T14:43:21.000Z,100789
2018-06-28T14:45:21.000Z,100790
2018-06-28T14:47:21.000Z,100778
2018-06-28T14:49:21.000Z,100791
2018-06-28T14:51:05.000Z,100790
2018-06-28T14:52:21.000Z,100790
2018-06-28T14:54:21.000Z,100783
2018-06-28T14:56:21.000Z,100773
2018-06-28T14:58:21.000Z,100775
2018-06-28T15:00:21.000Z,100770
2018-06-28T15:02:21.000Z,100775
2018-06-28T15:04:21.000Z,100774
2018-06-28T15:06:21.000Z,100771
2018-06-28T15:07:21.000Z,100773
2018-06-28T15:09:21.000Z,100775
2018-06-28T15:11:21.000Z,100767
2018-06-28T15:13:21.000Z,100764
2018-06-28T15:15:06.000Z,100758
2018-06-28T15:16:21.000Z,100757
2018-06-28T15:18:21.000Z,100763
2018-06-28T15:20:21.000Z,100754
2018-06-28T15:22:21.000Z,100748
2018-06-28T15:24:21.000Z,100744
2018-06-28T15:26:21.000Z,100748
2018-06-28T15:28:21.000Z,100749
2018-06-28T15:30:21.000Z,100757
2018-06-28T15:32:21.000Z,100747
2018-06-28T15:34:21.000Z,100752
2018-06-28T15:36:06.000Z,100744
2018-06-28T15:37:21.000Z,100742
2018-06-28T15:39:06.000Z,100741
2018-06-28T15:40:21.000Z,100736
2018-06-28T15:42:21.000Z,100737
2018-06-28T15:43:21.000Z,100741
2018-06-28T15:45:21.000Z,100743
2018-06-28T15:47:21.000Z,100742
2018-06-28T15:49:21.000Z,100735
2018-06-28T15:50:21.000Z,100737
2018-06-28T15:52:21.000Z,100732
2018-06-28T15:54:21.000Z,100735
2018-06-28T15:56:21.000Z,100736
2018-06-28T15:58:21.000Z,100735
2018-06-28T16:00:06.000Z,100730
2018-06-28T16:01:21.000Z,100728
2018-06-28T16:03:21.000Z,100722
2018-06-28T16:05:21.000Z,100719
2018-06-28T16:07:06.000Z,100722
2018-06-28T16:08:21.000Z,100717
2018-06-28T16:09:21.000Z,100715
2018-06-28T16:11:21.000Z,100720
2018-06-28T16:13:21.000Z,100719
2018-06-28T16:15:06.000Z,100718
2018-06-28T16:16:21.000Z,100716
2018-06-28T16:18:06.000Z,100720
2018-06-28T16:19:06.000Z,100723
2018-06-28T16:20:21.000Z,100720
2018-06-28T16:21:21.000Z,100724
2018-06-28T16:22:21.000Z,100724
2018-06-28T16:24:21.000Z,100724
2018-06-28T16:25:21.000Z,100718
2018-06-28T16:27:21.000Z,100721
2018-06-28T16:29:06.000Z,100716
2018-06-28T16:30:21.000Z,100716
2018-06-28T16:31:21.000Z,100712
2018-06-28T16:32:21.000Z,100713
2018-06-28T16:34:21.000Z,100708
2018-06-28T16:36:21.000Z,100718
2018-06-28T16:37:21.000Z,100722
2018-06-28T16:39:21.000Z,100713
2018-06-28T16:41:06.000Z,100721
2018-06-28T16:42:21.000Z,100719
2018-06-28T16:43:21.000Z,100715
2018-06-28T16:44:51.000Z,100707
2018-06-28T16:46:21.000Z,100706
2018-06-28T16:48:06.000Z,100735
2018-06-28T16:49:21.000Z,100712
2018-06-28T16:51:21.000Z,100712
2018-06-28T16:53:21.000Z,100704
2018-06-28T16:55:21.000Z,100710
2018-06-28T16:57:21.000Z,100701
2018-06-28T16:59:21.000Z,100711
2018-06-28T17:01:21.000Z,100715
2018-06-28T17:03:21.000Z,100714
2018-06-28T17:05:21.000Z,100706
2018-06-28T17:07:21.000Z,100712
2018-06-28T17:08:21.000Z,100707
2018-06-28T17:10:21.000Z,100702
2018-06-28T17:11:21.000Z,100696
2018-06-28T17:13:06.000Z,100703
2018-06-28T17:14:21.000Z,100699
2018-06-28T17:16:06.000Z,100712
2018-06-28T17:17:21.000Z,100703
2018-06-28T17:19:21.000Z,100698
2018-06-28T17:21:21.000Z,100707
2018-06-28T17:23:21.000Z,100707
2018-06-28T17:25:21.000Z,100708
2018-06-28T17:27:21.000Z,100707
2018-06-28T17:29:21.000Z,100704
2018-06-28T17:31:21.000Z,100707
2018-06-28T17:33:21.000Z,100706
2018-06-28T17:34:21.000Z,100703
2018-06-28T17:36:21.000Z,100702
2018-06-28T17:38:21.000Z,100703
2018-06-28T17:40:06.000Z,100708
2018-06-28T17:41:21.000Z,100695
2018-06-28T17:42:21.000Z,100702
2018-06-28T17:44:21.000Z,100693
2018-06-28T17:45:21.000Z,100694
2018-06-28T17:47:21.000Z,100696
2018-06-28T17:48:21.000Z,100691
2018-06-28T17:50:21.000Z,100698
2018-06-28T17:51:21.000Z,100698
2018-06-28T17:53:21.000Z,100705
2018-06-28T17:54:51.000Z,100700
2018-06-28T17:56:21.000Z,100700
2018-06-28T17:57:21.000Z,100701
2018-06-28T17:59:21.000Z,100700
2018-06-28T18:00:21.000Z,100703
2018-06-28T18:02:21.000Z,100706
2018-06-28T18:04:21.000Z,100706
2018-06-28T18:06:06.000Z,100705
2018-06-28T18:08:21.000Z,100696
2018-06-28T18:09:21.000Z,100695
2018-06-28T18:10:21.000Z,100693
2018-06-28T18:12:21.000Z,100701
2018-06-28T18:14:21.000Z,100696
2018-06-28T18:16:21.000Z,100694
2018-06-28T18:18:21.000Z,100694
2018-06-28T18:20:21.000Z,100690
2018-06-28T18:21:21.000Z,100692
2018-06-28T18:23:21.000Z,100693
2018-06-28T18:25:21.000Z,100694
2018-06-28T18:26:21.000Z,100691
2018-06-28T18:28:21.000Z,100696
2018-06-28T18:30:21.000Z,100698
2018-06-28T18:32:21.000Z,100695
2018-06-28T18:33:21.000Z,100694
2018-06-28T18:35:21.000Z,100701
2018-06-28T18:37:21.000Z,100709
2018-06-28T18:39:06.000Z,100703
2018-06-28T18:40:21.000Z,100710
2018-06-28T18:42:21.000Z,100701
2018-06-28T18:43:21.000Z,100702
2018-06-28T18:45:21.000Z,100703
2018-06-28T18:47:21.000Z,100698
2018-06-28T18:49:21.000Z,100704
2018-06-28T18:51:21.000Z,100703
2018-06-28T18:53:06.000Z,100703
2018-06-28T18:54:21.000Z,100702
2018-06-28T18:55:21.000Z,100703
2018-06-28T18:57:06.000Z,100704
2018-06-28T18:58:21.000Z,100703
2018-06-28T19:00:21.000Z,100700
2018-06-28T19:01:21.000Z,100701
2018-06-28T19:03:21.000Z,100697
2018-06-28T19:04:21.000Z,100702
2018-06-28T19:06:21.000Z,100700
2018-06-28T19:08:21.000Z,100701
2018-06-28T19:10:21.000Z,100707
2018-06-28T19:11:21.000Z,100705
2018-06-28T19:13:21.000Z,100705
2018-06-28T19:15:21.000Z,100713
2018-06-28T19:16:21.000Z,100709
2018-06-28T19:18:21.000Z,100704
2018-06-28T19:20:06.000Z,100713
2018-06-28T19:21:21.000Z,100707
2018-06-28T19:23:21.000Z,100712
2018-06-28T19:25:21.000Z,100710
2018-06-28T19:26:21.000Z,100715
2018-06-28T19:28:06.000Z,100717
2018-06-28T19:29:21.000Z,100716
2018-06-28T19:31:21.000Z,100717
2018-06-28T19:33:21.000Z,100727
2018-06-28T19:35:21.000Z,100725
2018-06-28T19:37:21.000Z,100726
2018-06-28T19:38:21.000Z,100728
2018-06-28T19:40:21.000Z,100725
2018-06-28T19:42:06.000Z,100723
2018-06-28T19:43:21.000Z,100721
2018-06-28T19:45:21.000Z,100721
2018-06-28T19:46:21.000Z,100725
2018-06-28T19:48:21.000Z,100734
2018-06-28T19:49:21.000Z,100730
2018-06-28T19:51:21.000Z,100728
2018-06-28T19:52:21.000Z,100731
2018-06-28T19:54:21.000Z,100724
2018-06-28T19:56:21.000Z,100721
2018-06-28T19:58:21.000Z,100726
2018-06-28T19:59:21.000Z,100729
2018-06-28T20:01:21.000Z,100725
2018-06-28T20:03:21.000Z,100733
2018-06-28T20:05:21.000Z,100728
2018-06-28T20:06:21.000Z,100731
2018-06-28T20:08:21.000Z,100737
2018-06-28T20:10:06.000Z,100740
2018-06-28T20:11:21.000Z,100737
2018-06-28T20:13:21.000Z,100737
2018-06-28T20:15:21.000Z,100733
2018-06-28T20:17:21.000Z,100743
2018-06-28T20:19:21.000Z,100742
2018-06-28T20:20:21.000Z,100741
2018-06-28T20:21:21.000Z,100740
2018-06-28T20:23:21.000Z,100744
2018-06-28T20:25:21.000Z,100745
2018-06-28T20:26:21.000Z,100744
2018-06-28T20:28:21.000Z,100747
2018-06-28T20:30:21.000Z,100744
2018-06-28T20:32:21.000Z,100748
2018-06-28T20:33:21.000Z,100749
2018-06-28T20:35:21.000Z,100750
2018-06-28T20:36:21.000Z,100746
2018-06-28T20:38:21.000Z,100752
2018-06-28T20:39:21.000Z,100748
2018-06-28T20:40:21.000Z,100748
2018-06-28T20:42:21.000Z,100751
2018-06-28T20:43:21.000Z,100749
2018-06-28T20:45:21.000Z,100752
2018-06-28T20:46:21.000Z,100752
2018-06-28T20:48:21.000Z,100752
2018-06-28T20:50:21.000Z,100749
2018-06-28T20:52:06.000Z,100753
2018-06-28T20:53:21.000Z,100757
2018-06-28T20:55:21.000Z,100761
2018-06-28T20:56:21.000Z,100759
2018-06-28T20:58:21.000Z,100762
2018-06-28T21:00:21.000Z,100761
2018-06-28T21:01:21.000Z,100761
2018-06-28T21:03:21.000Z,100763
2018-06-28T21:05:21.000Z,100761
2018-06-28T21:07:21.000Z,100766
2018-06-28T21:09:21.000Z,100768
2018-06-28T21:11:21.000Z,100767
2018-06-28T21:13:21.000Z,100768
2018-06-28T21:15:21.000Z,100766
2018-06-28T21:17:21.000Z,100764
2018-06-28T21:19:20.000Z,100769
2018-06-28T21:21:20.000Z,100769
2018-06-28T21:23:20.000Z,100765
2018-06-28T21:24:21.000Z,100765
2018-06-28T21:26:21.000Z,100771
2018-06-28T21:28:20.000Z,100769
2018-06-28T21:30:05.000Z,100771
2018-06-28T21:31:20.000Z,100775